createdAt,value
2018-10-07T00:00:50.653Z,0.154
2018-10-07T00:02:50.018Z,0.177
2018-10-07T00:04:50.631Z,0.279
2018-10-07T00:06:49.988Z,0.319
2018-10-07T00:08:50.174Z,0.154
2018-10-07T00:10:50.436Z,0.228
2018-10-07T00:12:50.665Z,0.211
2018-10-07T00:14:49.806Z,0.257
2018-10-07T00:16:50.056Z,0.217
2018-10-07T00:18:50.199Z,0.171
2018-10-07T00:20:50.410Z,0.257
2018-10-07T00:22:50.621Z,0.177
2018-10-07T00:24:49.906Z,0.177
2018-10-07T00:26:50.196Z,0.205
2018-10-07T00:28:50.380Z,0.182
2018-10-07T00:30:50.530Z,0.217
2018-10-07T00:32:50.685Z,0.251
2018-10-07T00:34:50.198Z,0.200
2018-10-07T00:36:50.519Z,0.160
2018-10-07T00:38:49.790Z,0.188
2018-10-07T00:40:49.940Z,0.200
2018-10-07T00:42:50.171Z,0.205
2018-10-07T00:44:50.395Z,0.234
2018-10-07T00:46:50.625Z,0.251
2018-10-07T00:48:49.793Z,0.228
2018-10-07T00:50:50.076Z,0.171
2018-10-07T00:52:50.284Z,0.188
2018-10-07T00:54:50.513Z,0.211
2018-10-07T00:56:49.827Z,0.217
2018-10-07T00:58:50.099Z,0.160
2018-10-07T01:00:50.277Z,0.188
2018-10-07T01:02:50.488Z,0.228
2018-10-07T01:04:50.017Z,0.200
2018-10-07T01:06:50.221Z,0.268
2018-10-07T01:08:50.401Z,0.165
2018-10-07T01:10:50.672Z,0.188
2018-10-07T01:12:49.843Z,0.205
2018-10-07T01:14:50.063Z,0.165
2018-10-07T01:16:50.299Z,0.245
2018-10-07T01:18:50.519Z,0.234
2018-10-07T01:20:49.916Z,0.205
2018-10-07T01:22:50.087Z,0.194
2018-10-07T01:24:50.274Z,0.239
2018-10-07T01:26:50.578Z,0.200
2018-10-07T01:28:49.820Z,0.194
2018-10-07T01:30:50.016Z,0.143
2018-10-07T01:32:50.195Z,0.228
2018-10-07T01:34:50.745Z,0.160
2018-10-07T01:36:50.098Z,0.188
2018-10-07T01:38:50.310Z,0.194
2018-10-07T01:40:50.561Z,0.205
2018-10-07T01:42:50.727Z,0.171
2018-10-07T01:44:49.884Z,0.154
2018-10-07T01:46:50.129Z,0.211
2018-10-07T01:48:50.326Z,0.234
2018-10-07T01:50:50.532Z,0.200
2018-10-07T01:52:50.658Z,0.171
2018-10-07T01:54:49.811Z,0.171
2018-10-07T01:56:50.211Z,0.222
2018-10-07T01:58:50.319Z,0.239
2018-10-07T02:00:50.507Z,0.217
2018-10-07T02:02:50.712Z,0.205
2018-10-07T02:04:50.258Z,0.217
2018-10-07T02:06:50.474Z,0.262
2018-10-07T02:08:50.501Z,0.171
2018-10-07T02:10:50.622Z,0.188
2018-10-07T02:12:49.794Z,0.188
2018-10-07T02:14:50.092Z,0.205
2018-10-07T02:16:50.428Z,0.182
2018-10-07T02:18:50.635Z,0.205
2018-10-07T02:20:50.773Z,0.177
2018-10-07T02:22:49.974Z,0.177
2018-10-07T02:24:50.199Z,0.165
2018-10-07T02:26:50.488Z,0.165
2018-10-07T02:28:50.592Z,0.165
2018-10-07T02:30:49.814Z,0.217
2018-10-07T02:32:50.014Z,0.228
2018-10-07T02:34:50.570Z,0.217
2018-10-07T02:36:49.923Z,0.182
2018-10-07T02:38:50.144Z,0.211
2018-10-07T02:40:50.314Z,0.188
2018-10-07T02:42:50.503Z,0.257
2018-10-07T02:44:50.769Z,0.171
2018-10-07T02:46:50.217Z,0.200
2018-10-07T02:48:50.373Z,0.182
2018-10-07T02:50:50.686Z,0.251
2018-10-07T02:52:49.885Z,0.182
2018-10-07T02:54:49.984Z,0.222
2018-10-07T02:56:50.272Z,0.257
2018-10-07T02:58:50.468Z,0.205
2018-10-07T03:00:50.661Z,0.148
2018-10-07T03:02:49.902Z,0.217
2018-10-07T03:04:51.209Z,0.171
2018-10-07T03:06:49.908Z,0.182
2018-10-07T03:08:50.131Z,0.222
2018-10-07T03:10:50.360Z,0.217
2018-10-07T03:12:50.636Z,0.137
2018-10-07T03:14:49.814Z,0.245
2018-10-07T03:16:50.209Z,0.251
2018-10-07T03:18:50.367Z,0.205
2018-10-07T03:20:50.525Z,0.222
2018-10-07T03:22:49.795Z,0.296
2018-10-07T03:24:49.974Z,0.200
2018-10-07T03:26:50.297Z,0.177
2018-10-07T03:28:50.467Z,0.177
2018-10-07T03:30:50.686Z,0.251
2018-10-07T03:32:49.875Z,0.251
2018-10-07T03:34:50.340Z,0.302
2018-10-07T03:36:50.573Z,0.228
2018-10-07T03:38:49.802Z,0.228
2018-10-07T03:40:50.083Z,0.200
2018-10-07T03:42:50.453Z,0.291
2018-10-07T03:44:50.611Z,0.245
2018-10-07T03:46:49.835Z,0.200
2018-10-07T03:48:50.058Z,0.228
2018-10-07T03:50:50.281Z,0.205
2018-10-07T03:52:50.577Z,0.182
2018-10-07T03:54:49.879Z,0.222
2018-10-07T03:56:50.227Z,0.222
2018-10-07T03:58:50.410Z,0.200
2018-10-07T04:00:50.616Z,0.194
2018-10-07T04:02:49.976Z,0.177
2018-10-07T04:04:50.562Z,0.165
2018-10-07T04:06:49.835Z,0.200
2018-10-07T04:08:50.060Z,0.251
2018-10-07T04:10:50.222Z,0.222
2018-10-07T04:12:50.441Z,0.268
2018-10-07T04:14:50.576Z,0.245
2018-10-07T04:16:49.956Z,0.200
2018-10-07T04:18:50.155Z,0.211
2018-10-07T04:20:50.343Z,0.171
2018-10-07T04:22:50.459Z,0.291
2018-10-07T04:24:50.653Z,0.291
2018-10-07T04:26:49.923Z,0.131
2018-10-07T04:28:50.132Z,0.182
2018-10-07T04:30:50.367Z,0.234
2018-10-07T04:32:50.568Z,0.200
2018-10-07T04:34:50.146Z,0.154
2018-10-07T04:36:50.379Z,0.257
2018-10-07T04:38:50.561Z,0.171
2018-10-07T04:40:49.805Z,0.200
2018-10-07T04:42:49.979Z,0.154
2018-10-07T04:44:50.206Z,0.268
2018-10-07T04:46:50.516Z,0.171
2018-10-07T04:48:49.799Z,0.222
2018-10-07T04:50:50.016Z,0.200
2018-10-07T04:52:50.198Z,0.257
2018-10-07T04:54:50.381Z,0.200
2018-10-07T04:56:50.784Z,0.200
2018-10-07T04:58:50.019Z,0.217
2018-10-07T05:00:50.162Z,0.251
2018-10-07T05:02:50.426Z,0.177
2018-10-07T05:04:50.053Z,0.222
2018-10-07T05:06:50.339Z,0.228
2018-10-07T05:08:50.482Z,0.211
2018-10-07T05:10:50.625Z,0.291
2018-10-07T05:12:49.832Z,0.234
2018-10-07T05:14:50.072Z,0.239
2018-10-07T05:16:50.384Z,0.239
2018-10-07T05:18:50.652Z,0.200
2018-10-07T05:20:50.258Z,0.200
2018-10-07T05:22:50.536Z,0.262
2018-10-07T05:24:50.833Z,0.279
2018-10-07T05:26:50.045Z,0.211
2018-10-07T05:28:50.229Z,0.160
2018-10-07T05:30:50.421Z,0.205
2018-10-07T05:32:50.674Z,0.245
2018-10-07T05:34:50.442Z,0.211
2018-10-07T05:36:50.261Z,0.239
2018-10-07T05:38:50.434Z,0.239
2018-10-07T05:40:50.653Z,0.200
2018-10-07T05:42:49.923Z,0.239
2018-10-07T05:44:50.725Z,0.177
2018-10-07T05:46:50.465Z,0.257
2018-10-07T05:48:50.666Z,0.222
2018-10-07T05:50:49.856Z,0.234
2018-10-07T05:52:50.145Z,0.257
2018-10-07T05:54:50.408Z,0.182
2018-10-07T05:56:50.584Z,0.228
2018-10-07T05:58:49.813Z,0.239
2018-10-07T06:00:50.109Z,0.291
2018-10-07T06:02:50.389Z,0.217
2018-10-07T06:04:49.904Z,0.194
2018-10-07T06:06:50.283Z,0.165
2018-10-07T06:08:50.448Z,0.205
2018-10-07T06:10:50.640Z,0.200
2018-10-07T06:12:49.815Z,0.194
2018-10-07T06:14:50.532Z,0.217
2018-10-07T06:16:50.185Z,0.302
2018-10-07T06:18:50.395Z,0.217
2018-10-07T06:20:50.639Z,0.257
2018-10-07T06:22:49.830Z,0.257
2018-10-07T06:24:50.050Z,0.200
2018-10-07T06:26:50.321Z,0.188
2018-10-07T06:28:50.523Z,0.205
2018-10-07T06:30:50.701Z,0.296
2018-10-07T06:32:50.107Z,0.182
2018-10-07T06:34:50.605Z,0.217
2018-10-07T06:36:49.947Z,0.234
2018-10-07T06:38:50.992Z,0.194
2018-10-07T06:40:50.402Z,0.222
2018-10-07T06:42:50.600Z,0.200
2018-10-07T06:44:49.823Z,0.257
2018-10-07T06:46:50.128Z,0.228
2018-10-07T06:48:50.345Z,0.171
2018-10-07T06:50:50.586Z,0.257
2018-10-07T06:52:49.803Z,0.245
2018-10-07T06:54:50.066Z,0.200
2018-10-07T06:56:50.372Z,0.177
2018-10-07T06:58:50.515Z,0.205
2018-10-07T07:00:49.821Z,0.245
2018-10-07T07:02:50.043Z,0.257
2018-10-07T07:04:50.682Z,0.188
2018-10-07T07:06:49.976Z,0.228
2018-10-07T07:08:50.215Z,0.143
2018-10-07T07:10:50.450Z,0.217
2018-10-07T07:12:50.909Z,0.222
2018-10-07T07:14:50.151Z,0.308
2018-10-07T07:16:50.476Z,0.257
2018-10-07T07:18:50.697Z,0.228
2018-10-07T07:20:49.942Z,0.228
2018-10-07T07:22:50.159Z,0.177
2018-10-07T07:24:50.372Z,0.177
2018-10-07T07:26:49.805Z,0.222
2018-10-07T07:28:50.036Z,0.348
2018-10-07T07:30:50.242Z,0.182
2018-10-07T07:32:50.453Z,0.245
2018-10-07T07:34:50.169Z,0.228
2018-10-07T07:36:50.923Z,0.274
2018-10-07T07:38:50.458Z,0.274
2018-10-07T07:40:50.650Z,0.217
2018-10-07T07:42:49.835Z,0.217
2018-10-07T07:44:50.099Z,0.228
2018-10-07T07:46:50.286Z,0.228
2018-10-07T07:48:50.603Z,0.177
2018-10-07T07:50:50.708Z,0.239
2018-10-07T07:52:49.930Z,0.217
2018-10-07T07:54:50.079Z,0.308
2018-10-07T07:56:50.392Z,0.200
2018-10-07T07:58:50.732Z,0.188
2018-10-07T08:00:49.884Z,0.160
2018-10-07T08:02:50.059Z,0.154
2018-10-07T08:04:50.627Z,0.222
2018-10-07T08:06:49.906Z,0.217
2018-10-07T08:08:50.679Z,0.268
2018-10-07T08:10:50.184Z,0.217
2018-10-07T08:12:50.348Z,0.205
2018-10-07T08:14:50.541Z,0.234
2018-10-07T08:16:49.845Z,0.245
2018-10-07T08:18:50.049Z,0.143
2018-10-07T08:20:50.241Z,0.268
2018-10-07T08:22:50.367Z,0.234
2018-10-07T08:24:50.495Z,0.279
2018-10-07T08:26:49.813Z,0.194
2018-10-07T08:28:49.999Z,0.245
2018-10-07T08:30:50.204Z,0.160
2018-10-07T08:32:50.396Z,0.222
2018-10-07T08:34:49.864Z,0.239
2018-10-07T08:36:50.015Z,0.239
2018-10-07T08:38:50.447Z,0.245
2018-10-07T08:40:50.727Z,0.211
2018-10-07T08:42:49.867Z,0.200
2018-10-07T08:44:50.055Z,0.285
2018-10-07T08:46:50.444Z,0.154
2018-10-07T08:48:50.570Z,0.239
2018-10-07T08:50:50.761Z,0.188
2018-10-07T08:52:50.033Z,0.171
2018-10-07T08:54:50.233Z,0.274
2018-10-07T08:56:50.506Z,0.211
2018-10-07T08:58:49.810Z,0.200
2018-10-07T09:00:50.037Z,0.302
2018-10-07T09:02:50.153Z,0.194
2018-10-07T09:04:50.613Z,0.217
2018-10-07T09:06:49.971Z,0.285
2018-10-07T09:08:50.684Z,0.205
2018-10-07T09:10:50.156Z,0.257
2018-10-07T09:12:50.360Z,0.194
2018-10-07T09:14:50.511Z,0.154
2018-10-07T09:16:49.847Z,0.160
2018-10-07T09:18:50.049Z,0.160
2018-10-07T09:24:50.631Z,0.239
2018-10-07T09:26:50.599Z,0.228
2018-10-07T09:28:50.031Z,0.228
2018-10-07T09:30:50.170Z,0.211
2018-10-07T09:32:50.675Z,0.211
2018-10-07T09:34:50.394Z,0.160
2018-10-07T09:36:51.082Z,0.205
2018-10-07T09:38:50.645Z,0.239
2018-10-07T09:40:49.890Z,0.228
2018-10-07T09:42:50.069Z,0.239
2018-10-07T09:44:50.317Z,0.239
2018-10-07T09:46:50.493Z,0.245
2018-10-07T09:48:50.724Z,0.211
2018-10-07T09:50:49.924Z,0.188
2018-10-07T09:52:50.138Z,0.262
2018-10-07T09:54:50.330Z,0.194
2018-10-07T09:56:50.644Z,0.160
2018-10-07T09:58:49.860Z,0.205
2018-10-07T10:00:50.118Z,0.200
2018-10-07T10:02:50.309Z,0.251
2018-10-07T10:04:49.858Z,0.205
2018-10-07T10:06:50.204Z,0.228
2018-10-07T10:08:50.451Z,0.268
2018-10-07T10:10:50.706Z,0.188
2018-10-07T10:12:49.796Z,0.245
2018-10-07T10:14:49.998Z,0.222
2018-10-07T10:16:50.221Z,0.239
2018-10-07T10:18:50.425Z,0.200
2018-10-07T10:20:50.645Z,0.188
2018-10-07T10:22:49.891Z,0.200
2018-10-07T10:24:50.763Z,0.274
2018-10-07T10:26:50.041Z,0.148
2018-10-07T10:28:50.198Z,0.217
2018-10-07T10:30:50.407Z,0.217
2018-10-07T10:32:50.631Z,0.217
2018-10-07T10:34:50.477Z,0.182
2018-10-07T10:36:51.179Z,0.171
2018-10-07T10:38:50.550Z,0.182
2018-10-07T10:40:50.746Z,0.194
2018-10-07T10:42:49.937Z,0.165
2018-10-07T10:44:50.154Z,0.177
2018-10-07T10:46:50.437Z,0.143
2018-10-07T10:48:49.957Z,0.217
2018-10-07T10:50:50.162Z,0.188
2018-10-07T10:52:50.382Z,0.160
2018-10-07T10:54:50.514Z,0.188
2018-10-07T10:56:49.842Z,0.217
2018-10-07T10:58:50.027Z,0.217
2018-10-07T11:00:50.446Z,0.200
2018-10-07T11:02:49.885Z,0.194
2018-10-07T11:04:50.349Z,0.154
2018-10-07T11:06:50.604Z,0.200
2018-10-07T11:08:49.799Z,0.205
2018-10-07T11:10:49.967Z,0.177
2018-10-07T11:12:50.148Z,0.251
2018-10-07T11:14:50.380Z,0.251
2018-10-07T11:16:50.595Z,0.205
2018-10-07T11:18:50.087Z,0.205
2018-10-07T11:20:50.217Z,0.182
2018-10-07T11:22:50.386Z,0.285
2018-10-07T11:24:50.749Z,0.188
2018-10-07T11:26:50.046Z,0.188
2018-10-07T11:28:50.251Z,0.222
2018-10-07T11:30:50.395Z,0.177
2018-10-07T11:32:50.574Z,0.165
2018-10-07T11:34:50.388Z,0.200
2018-10-07T11:36:50.387Z,0.200
2018-10-07T11:38:50.561Z,0.165
2018-10-07T11:40:50.502Z,0.211
2018-10-07T11:42:49.847Z,0.205
2018-10-07T11:44:50.012Z,0.228
2018-10-07T11:46:50.342Z,0.160
2018-10-07T11:48:50.417Z,0.125
2018-10-07T11:50:50.685Z,0.211
2018-10-07T11:52:50.913Z,0.160
2018-10-07T11:54:49.981Z,0.137
2018-10-07T11:56:50.355Z,0.200
2018-10-07T11:58:50.601Z,0.137
2018-10-07T12:00:50.776Z,0.165
2018-10-07T12:02:50.796Z,0.148
2018-10-07T12:04:50.628Z,0.125
2018-10-07T12:06:50.024Z,0.017
2018-10-07T12:08:50.299Z,0.000
2018-10-07T12:10:50.475Z,0.000
2018-10-07T12:12:50.693Z,0.000
2018-10-07T12:14:49.886Z,0.000
2018-10-07T12:16:50.155Z,0.000
2018-10-07T12:18:50.304Z,0.000
2018-10-07T12:20:50.496Z,0.000
2018-10-07T12:22:50.673Z,0.000
2018-10-07T12:24:49.865Z,0.000
2018-10-07T12:26:50.132Z,0.000
2018-10-07T12:28:50.534Z,0.000
2018-10-07T12:30:49.827Z,0.000
2018-10-07T12:32:50.004Z,0.000
2018-10-07T12:34:50.555Z,0.000
2018-10-07T12:36:51.309Z,0.000
2018-10-07T12:38:49.929Z,0.000
2018-10-07T12:40:50.194Z,0.000
2018-10-07T12:42:50.914Z,0.000
2018-10-07T12:44:50.400Z,0.000
2018-10-07T12:46:50.642Z,0.000
2018-10-07T12:48:49.874Z,0.125
2018-10-07T12:50:50.040Z,0.188
2018-10-07T12:52:50.158Z,0.182
2018-10-07T12:54:50.309Z,0.171
2018-10-07T12:56:50.658Z,0.182
2018-10-07T12:58:49.851Z,0.171
2018-10-07T13:00:50.037Z,0.154
2018-10-07T13:02:50.226Z,0.171
2018-10-07T13:04:50.603Z,0.000
2018-10-07T13:06:49.959Z,0.000
2018-10-07T13:08:50.122Z,0.000
2018-10-07T13:10:50.280Z,0.000
2018-10-07T13:12:50.377Z,0.000
2018-10-07T13:14:50.615Z,0.000
2018-10-07T13:16:49.941Z,0.000
2018-10-07T13:18:50.035Z,0.000
2018-10-07T13:20:50.195Z,0.000
2018-10-07T13:22:50.428Z,0.000
2018-10-07T13:24:50.673Z,0.000
2018-10-07T13:26:49.973Z,0.000
2018-10-07T13:28:50.160Z,0.063
2018-10-07T13:30:50.347Z,0.148
2018-10-07T13:32:50.454Z,0.188
2018-10-07T13:34:49.958Z,0.182
2018-10-07T13:36:50.235Z,0.154
2018-10-07T13:38:50.384Z,0.154
2018-10-07T13:40:50.517Z,0.137
2018-10-07T13:42:50.701Z,0.160
2018-10-07T13:44:50.002Z,0.137
2018-10-07T13:46:50.282Z,0.182
2018-10-07T13:48:50.483Z,0.177
2018-10-07T13:50:50.732Z,0.114
2018-10-07T13:52:49.960Z,0.125
2018-10-07T13:54:50.079Z,0.188
2018-10-07T13:56:50.275Z,0.165
2018-10-07T13:58:50.509Z,0.154
2018-10-07T14:00:50.731Z,0.200
2018-10-07T14:02:49.919Z,0.171
2018-10-07T14:04:50.465Z,0.205
2018-10-07T14:06:49.802Z,0.029
2018-10-07T14:08:49.977Z,0.000
2018-10-07T14:10:50.175Z,0.046
2018-10-07T14:12:50.352Z,0.160
2018-10-07T14:14:50.527Z,0.188
2018-10-07T14:16:49.963Z,0.165
2018-10-07T14:18:50.106Z,0.165
2018-10-07T14:20:50.296Z,0.114
2018-10-07T14:22:50.494Z,0.057
2018-10-07T14:24:50.585Z,0.000
2018-10-07T14:26:49.973Z,0.063
2018-10-07T14:28:50.007Z,0.143
2018-10-07T14:30:50.236Z,0.131
2018-10-07T14:32:50.385Z,0.137
2018-10-07T14:34:49.872Z,0.182
2018-10-07T14:36:50.361Z,0.131
2018-10-07T14:38:50.503Z,0.154
2018-10-07T14:40:50.730Z,0.177
2018-10-07T14:42:49.892Z,0.125
2018-10-07T14:44:50.109Z,0.171
2018-10-07T14:46:50.389Z,0.120
2018-10-07T14:48:50.570Z,0.154
2018-10-07T14:50:49.788Z,0.120
2018-10-07T14:52:49.961Z,0.171
2018-10-07T14:54:50.174Z,0.125
2018-10-07T14:56:50.455Z,0.194
2018-10-07T14:58:50.621Z,0.182
2018-10-07T15:00:49.827Z,0.097
2018-10-07T15:02:49.956Z,0.160
2018-10-07T15:04:50.330Z,0.171
2018-10-07T15:06:50.591Z,0.165
2018-10-07T15:08:49.862Z,0.205
2018-10-07T15:10:50.039Z,0.165
2018-10-07T15:12:50.239Z,0.200
2018-10-07T15:14:50.413Z,0.222
2018-10-07T15:16:50.632Z,0.165
2018-10-07T15:18:49.779Z,0.217
2018-10-07T15:20:50.004Z,0.143
2018-10-07T15:22:50.204Z,0.160
2018-10-07T15:24:50.338Z,0.160
2018-10-07T15:26:50.655Z,0.160
2018-10-07T15:28:49.842Z,0.177
2018-10-07T15:30:49.948Z,0.148
2018-10-07T15:32:50.134Z,0.131
2018-10-07T15:34:50.557Z,0.143
2018-10-07T15:36:49.896Z,0.125
2018-10-07T15:38:50.097Z,0.154
2018-10-07T15:40:50.315Z,0.182
2018-10-07T15:42:50.540Z,0.200
2018-10-07T15:44:50.763Z,0.125
2018-10-07T15:46:50.166Z,0.131
2018-10-07T15:48:50.260Z,0.154
2018-10-07T15:50:50.403Z,0.182
2018-10-07T15:52:50.528Z,0.137
2018-10-07T15:54:50.774Z,0.194
2018-10-07T15:56:50.831Z,0.160
2018-10-07T15:58:50.217Z,0.160
2018-10-07T16:00:50.379Z,0.160
2018-10-07T16:02:50.496Z,0.211
2018-10-07T16:04:50.207Z,0.171
2018-10-07T16:06:50.443Z,0.177
2018-10-07T16:08:50.880Z,0.160
2018-10-07T16:10:50.212Z,0.160
2018-10-07T16:12:50.458Z,0.165
2018-10-07T16:14:50.634Z,0.171
2018-10-07T16:16:49.919Z,0.205
2018-10-07T16:18:50.208Z,0.182
2018-10-07T16:20:50.275Z,0.188
2018-10-07T16:22:50.423Z,0.177
2018-10-07T16:24:50.535Z,0.160
2018-10-07T16:26:49.930Z,0.194
2018-10-07T16:28:50.090Z,0.177
2018-10-07T16:30:50.263Z,0.125
2018-10-07T16:32:50.485Z,0.188
2018-10-07T16:34:49.884Z,0.154
2018-10-07T16:36:50.094Z,0.200
2018-10-07T16:38:50.218Z,0.137
2018-10-07T16:40:50.341Z,0.120
2018-10-07T16:42:50.608Z,0.188
2018-10-07T16:44:50.776Z,0.205
2018-10-07T16:46:50.195Z,0.165
2018-10-07T16:48:50.367Z,0.131
2018-10-07T16:50:50.600Z,0.171
2018-10-07T16:52:50.588Z,0.154
2018-10-07T16:54:50.091Z,0.154
2018-10-07T16:56:50.351Z,0.177
2018-10-07T16:58:50.474Z,0.160
2018-10-07T17:00:50.665Z,0.182
2018-10-07T17:02:49.797Z,0.160
2018-10-07T17:04:50.569Z,0.188
2018-10-07T17:06:49.817Z,0.143
2018-10-07T17:08:50.004Z,0.165
2018-10-07T17:10:50.170Z,0.160
2018-10-07T17:12:50.662Z,0.143
2018-10-07T17:14:50.238Z,0.160
2018-10-07T17:16:50.487Z,0.160
2018-10-07T17:18:50.659Z,0.200
2018-10-07T17:20:50.246Z,0.188
2018-10-07T17:22:50.562Z,0.143
2018-10-07T17:24:50.741Z,0.205
2018-10-07T17:26:50.098Z,0.188
2018-10-07T17:28:50.309Z,0.165
2018-10-07T17:30:50.473Z,0.228
2018-10-07T17:32:51.117Z,0.200
2018-10-07T17:34:49.924Z,0.154
2018-10-07T17:36:50.275Z,0.177
2018-10-07T17:38:50.502Z,0.177
2018-10-07T17:40:50.708Z,0.188
2018-10-07T17:42:50.314Z,0.108
2018-10-07T17:44:50.704Z,0.182
2018-10-07T17:46:50.038Z,0.177
2018-10-07T17:48:51.220Z,0.143
2018-10-07T17:50:49.973Z,0.125
2018-10-07T17:52:50.201Z,0.205
2018-10-07T17:54:50.710Z,0.125
2018-10-07T17:56:50.345Z,0.182
2018-10-07T17:58:50.492Z,0.165
2018-10-07T18:00:50.611Z,0.154
2018-10-07T18:02:50.601Z,0.114
2018-10-07T18:04:50.224Z,0.245
2018-10-07T18:06:50.537Z,0.171
2018-10-07T18:08:50.664Z,0.211
2018-10-07T18:10:49.832Z,0.114
2018-10-07T18:12:50.076Z,0.228
2018-10-07T18:14:50.437Z,0.211
2018-10-07T18:16:49.967Z,0.171
2018-10-07T18:18:50.148Z,0.154
2018-10-07T18:20:50.354Z,0.177
2018-10-07T18:22:50.540Z,0.182
2018-10-07T18:24:49.835Z,0.222
2018-10-07T18:26:50.085Z,0.188
2018-10-07T18:28:50.407Z,0.217
2018-10-07T18:30:49.867Z,0.165
2018-10-07T18:32:50.551Z,0.148
2018-10-07T18:34:50.417Z,0.171
2018-10-07T18:36:49.987Z,0.165
2018-10-07T18:38:50.347Z,0.160
2018-10-07T18:40:50.764Z,0.131
2018-10-07T18:42:50.349Z,0.137
2018-10-07T18:44:49.821Z,0.137
2018-10-07T18:46:50.481Z,0.177
2018-10-07T18:48:51.111Z,0.160
2018-10-07T18:50:50.255Z,0.182
2018-10-07T18:52:50.864Z,0.194
2018-10-07T18:54:50.414Z,0.143
2018-10-07T18:56:50.091Z,0.171
2018-10-07T18:58:50.623Z,0.182
2018-10-07T19:00:50.229Z,0.160
2018-10-07T19:02:51.835Z,0.194
2018-10-07T19:04:50.205Z,0.200
2018-10-07T19:06:50.761Z,0.160
2018-10-07T19:08:50.239Z,0.177
2018-10-07T19:10:50.987Z,0.257
2018-10-07T19:12:50.427Z,0.160
2018-10-07T19:14:50.112Z,0.177
2018-10-07T19:16:50.714Z,0.182
2018-10-07T19:18:50.268Z,0.120
2018-10-07T19:20:51.128Z,0.188
2018-10-07T19:22:50.202Z,0.154
2018-10-07T19:24:50.757Z,0.120
2018-10-07T19:26:50.308Z,0.194
2018-10-07T19:28:49.954Z,0.160
2018-10-07T19:30:50.531Z,0.200
2018-10-07T19:32:50.041Z,0.160
2018-10-07T19:34:50.050Z,0.154
2018-10-07T19:36:51.033Z,0.211
2018-10-07T19:38:50.384Z,0.188
2018-10-07T19:40:50.003Z,0.188
2018-10-07T19:42:51.028Z,0.165
2018-10-07T19:44:51.125Z,0.165
2018-10-07T19:46:50.247Z,0.200
2018-10-07T19:48:50.842Z,0.194
2018-10-07T19:50:50.430Z,0.194
2018-10-07T19:52:50.363Z,0.165
2018-10-07T19:54:50.184Z,0.211
2018-10-07T19:56:50.147Z,0.205
2018-10-07T19:58:50.624Z,0.200
2018-10-07T20:00:50.290Z,0.177
2018-10-07T20:02:49.819Z,0.131
2018-10-07T20:04:50.602Z,0.131
2018-10-07T20:06:50.355Z,0.217
2018-10-07T20:08:49.851Z,0.154
2018-10-07T20:10:50.294Z,0.194
2018-10-07T20:12:50.872Z,0.228
2018-10-07T20:14:50.331Z,0.182
2018-10-07T20:16:50.120Z,0.171
2018-10-07T20:18:50.679Z,0.217
2018-10-07T20:20:50.277Z,0.211
2018-10-07T20:22:50.697Z,0.120
2018-10-07T20:24:50.149Z,0.165
2018-10-07T20:26:50.619Z,0.177
2018-10-07T20:28:50.115Z,0.148
2018-10-07T20:30:50.533Z,0.274
2018-10-07T20:32:50.084Z,0.211
2018-10-07T20:34:50.082Z,0.211
2018-10-07T20:36:50.756Z,0.200
2018-10-07T20:38:50.478Z,0.137
2018-10-07T20:40:51.628Z,0.160
2018-10-07T20:42:49.990Z,0.188
2018-10-07T20:44:50.655Z,0.154
2018-10-07T20:46:50.405Z,0.211
2018-10-07T20:48:49.968Z,0.143
2018-10-07T20:50:50.252Z,0.177
2018-10-07T20:52:50.692Z,0.143
2018-10-07T20:54:49.960Z,0.188
2018-10-07T20:56:50.318Z,0.217
2018-10-07T20:58:50.603Z,0.274
2018-10-07T21:00:50.091Z,0.165
2018-10-07T21:02:51.046Z,0.177
2018-10-07T21:04:50.799Z,0.188
2018-10-07T21:06:50.524Z,0.177
2018-10-07T21:08:50.095Z,0.251
2018-10-07T21:10:50.452Z,0.143
2018-10-07T21:12:49.956Z,0.143
2018-10-07T21:14:50.441Z,0.188
2018-10-07T21:16:50.181Z,0.171
2018-10-07T21:18:50.789Z,0.205
2018-10-07T21:20:50.338Z,0.171
2018-10-07T21:22:49.859Z,0.188
2018-10-07T21:24:50.443Z,0.234
2018-10-07T21:26:50.029Z,0.177
2018-10-07T21:28:50.581Z,0.148
2018-10-07T21:30:50.201Z,0.217
2018-10-07T21:32:50.786Z,0.194
2018-10-07T21:34:50.405Z,0.200
2018-10-07T21:36:50.106Z,0.194
2018-10-07T21:38:50.693Z,0.222
2018-10-07T21:40:50.274Z,0.222
2018-10-07T21:42:50.800Z,0.165
2018-10-07T21:44:50.199Z,0.160
2018-10-07T21:46:50.851Z,0.217
2018-10-07T21:48:50.501Z,0.188
2018-10-07T21:50:50.009Z,0.177
2018-10-07T21:52:50.448Z,0.222
2018-10-07T21:54:49.957Z,0.154
2018-10-07T21:56:50.620Z,0.143
2018-10-07T21:58:50.072Z,0.211
2018-10-07T22:00:50.554Z,0.177
2018-10-07T22:02:50.027Z,0.194
2018-10-07T22:04:49.870Z,0.217
2018-10-07T22:06:50.470Z,0.160
2018-10-07T22:08:49.851Z,0.165
2018-10-07T22:10:50.281Z,0.182
2018-10-07T22:12:50.702Z,0.165
2018-10-07T22:14:50.300Z,0.177
2018-10-07T22:16:49.943Z,0.234
2018-10-07T22:18:50.387Z,0.234
2018-10-07T22:20:49.879Z,0.131
2018-10-07T22:22:50.347Z,0.165
2018-10-07T22:24:49.827Z,0.171
2018-10-07T22:26:50.441Z,0.194
2018-10-07T22:28:49.893Z,0.165
2018-10-07T22:30:50.378Z,0.177
2018-10-07T22:32:49.830Z,0.194
2018-10-07T22:34:50.575Z,0.148
2018-10-07T22:36:50.334Z,0.182
2018-10-07T22:38:49.837Z,0.165
2018-10-07T22:40:50.289Z,0.148
2018-10-07T22:42:50.785Z,0.148
2018-10-07T22:44:50.412Z,0.137
2018-10-07T22:46:50.033Z,0.188
2018-10-07T22:48:50.538Z,0.165
2018-10-07T22:50:50.034Z,0.188
2018-10-07T22:52:50.488Z,0.262
2018-10-07T22:54:49.994Z,0.171
2018-10-07T22:56:50.790Z,0.171
2018-10-07T22:58:50.392Z,0.239
2018-10-07T23:00:50.067Z,0.182
2018-10-07T23:02:50.561Z,0.165
2018-10-07T23:04:50.492Z,0.262
2018-10-07T23:06:50.018Z,0.177
2018-10-07T23:08:50.493Z,0.182
2018-10-07T23:10:50.137Z,0.222
2018-10-07T23:12:50.767Z,0.217
2018-10-07T23:14:50.290Z,0.234
2018-10-07T23:16:49.973Z,0.239
2018-10-07T23:18:50.412Z,0.177
2018-10-07T23:20:49.912Z,0.217
2018-10-07T23:22:50.441Z,0.251
2018-10-07T23:24:50.007Z,0.222
2018-10-07T23:26:50.583Z,0.177
2018-10-07T23:28:50.137Z,0.188
2018-10-07T23:30:50.591Z,0.228
2018-10-07T23:32:50.298Z,0.148
2018-10-07T23:34:50.271Z,0.268
2018-10-07T23:36:49.982Z,0.217
2018-10-07T23:38:50.529Z,0.228
2018-10-07T23:40:50.010Z,0.177
2018-10-07T23:42:50.471Z,0.154
2018-10-07T23:44:50.070Z,0.205
2018-10-07T23:46:50.754Z,0.245
2018-10-07T23:48:50.257Z,0.148
2018-10-07T23:50:50.786Z,0.211
2018-10-07T23:52:50.567Z,0.154
2018-10-07T23:54:50.111Z,0.239
2018-10-07T23:56:50.725Z,0.211
2018-10-07T23:58:50.252Z,0.200
